Řízení letového provozu České republiky
Letiste: LKKV Aktualizace: 26.05.2016 08:36:37  UTC
 METAR LKKV 26.05. 08:30 ...
METAR LKKV 260830Z VRB03KT 9999 FEW020 16/08 Q1017 RMK REG QNH 1013=
 TAF LKKV 26.05. 05:00 ...
TAF LKKV 260500Z 2606/2712 26004KT 8000 BKN017      BECMG 2607/2609 32008KT 9999 SCT027      TEMPO 2609/2617 -SHRA BKN020      BECMG 2617/2619 VRB02KT CAVOK      TEMPO 2702/2706 5000 BR SCT010      BECMG 2706/2708 33006KT 9999 BKN025      TEMPO 2708/2712 7000 SHRA SCT013TCU BKN020=